sensor_id;sensor_type;location;lat;lon;timestamp;temperature;humidity
3644;DHT22;1838;50.742;7.158;2023-02-19T00:03:34;11.70;99.90
3644;DHT22;1838;50.742;7.158;2023-02-19T00:06:08;11.70;99.90
3644;DHT22;1838;50.742;7.158;2023-02-19T00:08:35;11.70;99.90
3644;DHT22;1838;50.742;7.158;2023-02-19T00:11:02;11.70;99.90
3644;DHT22;1838;50.742;7.158;2023-02-19T00:13:28;11.80;99.90
3644;DHT22;1838;50.742;7.158;2023-02-19T00:15:54;11.80;99.90
3644;DHT22;1838;50.742;7.158;2023-02-19T00:18:21;11.80;99.90
3644;DHT22;1838;50.742;7.158;2023-02-19T00:20:46;11.80;99.90
3644;DHT22;1838;50.742;7.158;2023-02-19T00:23:12;11.80;99.90
3644;DHT22;1838;50.742;7.158;2023-02-19T00:25:37;11.80;99.90
3644;DHT22;1838;50.742;7.158;2023-02-19T00:28:03;11.80;99.90
3644;DHT22;1838;50.742;7.158;2023-02-19T00:30:29;11.70;99.90
3644;DHT22;1838;50.742;7.158;2023-02-19T00:32:55;11.80;99.90
3644;DHT22;1838;50.742;7.158;2023-02-19T00:35:21;11.70;99.90
3644;DHT22;1838;50.742;7.158;2023-02-19T00:37:47;11.70;99.90
3644;DHT22;1838;50.742;7.158;2023-02-19T00:40:13;11.70;99.90
3644;DHT22;1838;50.742;7.158;2023-02-19T00:42:38;11.70;99.90
3644;DHT22;1838;50.742;7.158;2023-02-19T00:45:04;11.70;99.90
3644;DHT22;1838;50.742;7.158;2023-02-19T00:47:29;11.60;99.90
3644;DHT22;1838;50.742;7.158;2023-02-19T00:49:55;11.70;99.90
3644;DHT22;1838;50.742;7.158;2023-02-19T00:52:20;11.60;99.90
3644;DHT22;1838;50.742;7.158;2023-02-19T00:54:46;11.60;99.90
3644;DHT22;1838;50.742;7.158;2023-02-19T00:57:11;11.60;99.90
3644;DHT22;1838;50.742;7.158;2023-02-19T00:59:37;11.60;99.90
3644;DHT22;1838;50.742;7.158;2023-02-19T01:02:02;11.60;99.90
3644;DHT22;1838;50.742;7.158;2023-02-19T01:04:28;11.60;99.90
3644;DHT22;1838;50.742;7.158;2023-02-19T01:06:53;11.50;99.90
3644;DHT22;1838;50.742;7.158;2023-02-19T01:09:19;11.50;99.90
3644;DHT22;1838;50.742;7.158;2023-02-19T01:11:45;11.50;99.90
3644;DHT22;1838;50.742;7.158;2023-02-19T01:14:10;11.50;99.90
3644;DHT22;1838;50.742;7.158;2023-02-19T01:16:36;11.50;99.90
3644;DHT22;1838;50.742;7.158;2023-02-19T01:19:01;11.40;99.90
3644;DHT22;1838;50.742;7.158;2023-02-19T01:21:28;11.40;99.90
3644;DHT22;1838;50.742;7.158;2023-02-19T01:23:55;11.30;99.90
3644;DHT22;1838;50.742;7.158;2023-02-19T01:26:23;11.40;99.90
3644;DHT22;1838;50.742;7.158;2023-02-19T01:28:49;11.30;99.90
3644;DHT22;1838;50.742;7.158;2023-02-19T01:31:17;11.30;99.90
3644;DHT22;1838;50.742;7.158;2023-02-19T01:33:48;11.40;99.90
3644;DHT22;1838;50.742;7.158;2023-02-19T01:36:14;11.40;99.90
3644;DHT22;1838;50.742;7.158;2023-02-19T01:38:40;11.40;99.90
3644;DHT22;1838;50.742;7.158;2023-02-19T01:41:07;11.40;99.90
3644;DHT22;1838;50.742;7.158;2023-02-19T01:43:53;11.40;99.90
3644;DHT22;1838;50.742;7.158;2023-02-19T01:46:19;11.40;99.90
3644;DHT22;1838;50.742;7.158;2023-02-19T01:48:45;11.50;99.90
3644;DHT22;1838;50.742;7.158;2023-02-19T01:51:17;11.50;99.90
3644;DHT22;1838;50.742;7.158;2023-02-19T01:53:46;11.50;99.90
3644;DHT22;1838;50.742;7.158;2023-02-19T01:56:15;11.50;99.90
3644;DHT22;1838;50.742;7.158;2023-02-19T01:58:42;11.50;99.90
3644;DHT22;1838;50.742;7.158;2023-02-19T02:01:08;11.50;99.90
3644;DHT22;1838;50.742;7.158;2023-02-19T02:03:36;11.50;99.90
3644;DHT22;1838;50.742;7.158;2023-02-19T02:06:11;11.40;99.90
3644;DHT22;1838;50.742;7.158;2023-02-19T02:08:39;11.30;99.90
3644;DHT22;1838;50.742;7.158;2023-02-19T02:11:23;11.40;99.90
3644;DHT22;1838;50.742;7.158;2023-02-19T02:13:50;11.30;99.90
3644;DHT22;1838;50.742;7.158;2023-02-19T02:16:56;11.30;99.90
3644;DHT22;1838;50.742;7.158;2023-02-19T02:19:46;11.30;99.90
3644;DHT22;1838;50.742;7.158;2023-02-19T02:22:35;11.40;99.90
3644;DHT22;1838;50.742;7.158;2023-02-19T02:33:32;11.40;99.90
3644;DHT22;1838;50.742;7.158;2023-02-19T02:36:11;11.40;99.90
3644;DHT22;1838;50.742;7.158;2023-02-19T02:38:40;11.40;99.90
3644;DHT22;1838;50.742;7.158;2023-02-19T02:41:06;11.40;99.90
3644;DHT22;1838;50.742;7.158;2023-02-19T02:43:32;11.40;99.90
3644;DHT22;1838;50.742;7.158;2023-02-19T02:45:58;11.40;99.90
3644;DHT22;1838;50.742;7.158;2023-02-19T02:48:40;11.40;99.90
3644;DHT22;1838;50.742;7.158;2023-02-19T02:51:29;11.40;99.90
3644;DHT22;1838;50.742;7.158;2023-02-19T02:54:06;11.40;99.90
3644;DHT22;1838;50.742;7.158;2023-02-19T02:56:53;11.40;99.90
3644;DHT22;1838;50.742;7.158;2023-02-19T02:59:23;11.40;99.90
3644;DHT22;1838;50.742;7.158;2023-02-19T03:02:09;11.40;99.90
3644;DHT22;1838;50.742;7.158;2023-02-19T03:07:37;11.30;99.90
3644;DHT22;1838;50.742;7.158;2023-02-19T03:10:07;11.30;99.90
3644;DHT22;1838;50.742;7.158;2023-02-19T03:12:36;11.30;99.90
3644;DHT22;1838;50.742;7.158;2023-02-19T03:15:24;11.30;99.90
3644;DHT22;1838;50.742;7.158;2023-02-19T03:18:11;11.30;99.90
3644;DHT22;1838;50.742;7.158;2023-02-19T03:20:57;11.40;99.90
3644;DHT22;1838;50.742;7.158;2023-02-19T03:23:27;11.40;99.90
3644;DHT22;1838;50.742;7.158;2023-02-19T03:26:16;11.40;99.90
3644;DHT22;1838;50.742;7.158;2023-02-19T03:28:44;11.40;99.90
3644;DHT22;1838;50.742;7.158;2023-02-19T03:31:30;11.50;99.90
3644;DHT22;1838;50.742;7.158;2023-02-19T03:33:59;11.50;99.90
3644;DHT22;1838;50.742;7.158;2023-02-19T03:36:34;11.40;99.90
3644;DHT22;1838;50.742;7.158;2023-02-19T03:39:04;11.40;99.90
3644;DHT22;1838;50.742;7.158;2023-02-19T03:41:36;11.30;99.90
3644;DHT22;1838;50.742;7.158;2023-02-19T03:49:54;11.30;99.90
3644;DHT22;1838;50.742;7.158;2023-02-19T03:55:28;11.20;99.90
3644;DHT22;1838;50.742;7.158;2023-02-19T03:58:20;11.20;99.90
3644;DHT22;1838;50.742;7.158;2023-02-19T04:01:02;11.10;99.90
3644;DHT22;1838;50.742;7.158;2023-02-19T04:04:07;11.20;99.90
3644;DHT22;1838;50.742;7.158;2023-02-19T04:06:35;11.10;99.90
3644;DHT22;1838;50.742;7.158;2023-02-19T04:09:04;11.10;99.90
3644;DHT22;1838;50.742;7.158;2023-02-19T04:11:31;11.00;99.90
3644;DHT22;1838;50.742;7.158;2023-02-19T04:14:02;11.10;99.90
3644;DHT22;1838;50.742;7.158;2023-02-19T04:16:32;11.10;99.90
3644;DHT22;1838;50.742;7.158;2023-02-19T04:19:04;11.10;99.90
3644;DHT22;1838;50.742;7.158;2023-02-19T04:21:31;11.10;99.90
3644;DHT22;1838;50.742;7.158;2023-02-19T04:24:02;11.20;99.90
3644;DHT22;1838;50.742;7.158;2023-02-19T04:26:31;11.20;99.90
3644;DHT22;1838;50.742;7.158;2023-02-19T04:28:57;11.20;99.90
3644;DHT22;1838;50.742;7.158;2023-02-19T04:31:24;11.20;99.90
3644;DHT22;1838;50.742;7.158;2023-02-19T04:33:50;11.20;99.90
3644;DHT22;1838;50.742;7.158;2023-02-19T04:36:15;11.20;99.90
3644;DHT22;1838;50.742;7.158;2023-02-19T04:38:41;11.20;99.90
3644;DHT22;1838;50.742;7.158;2023-02-19T04:41:08;11.10;99.90
3644;DHT22;1838;50.742;7.158;2023-02-19T04:43:33;11.20;99.90
3644;DHT22;1838;50.742;7.158;2023-02-19T04:46:00;11.20;99.90
3644;DHT22;1838;50.742;7.158;2023-02-19T04:48:26;11.20;99.90
3644;DHT22;1838;50.742;7.158;2023-02-19T04:50:52;11.20;99.90
3644;DHT22;1838;50.742;7.158;2023-02-19T04:53:17;11.20;99.90
3644;DHT22;1838;50.742;7.158;2023-02-19T04:55:43;11.20;99.90
3644;DHT22;1838;50.742;7.158;2023-02-19T04:58:08;11.20;99.90
3644;DHT22;1838;50.742;7.158;2023-02-19T05:00:34;11.10;99.90
3644;DHT22;1838;50.742;7.158;2023-02-19T05:03:00;11.20;99.90
3644;DHT22;1838;50.742;7.158;2023-02-19T05:05:25;11.20;99.90
3644;DHT22;1838;50.742;7.158;2023-02-19T05:07:51;11.20;99.90
3644;DHT22;1838;50.742;7.158;2023-02-19T05:10:16;11.20;99.90
3644;DHT22;1838;50.742;7.158;2023-02-19T05:12:42;11.20;99.90
3644;DHT22;1838;50.742;7.158;2023-02-19T05:15:07;11.20;99.90
3644;DHT22;1838;50.742;7.158;2023-02-19T05:17:33;11.20;99.90
3644;DHT22;1838;50.742;7.158;2023-02-19T05:19:59;11.20;99.90
3644;DHT22;1838;50.742;7.158;2023-02-19T05:22:24;11.10;99.90
3644;DHT22;1838;50.742;7.158;2023-02-19T05:24:50;11.10;99.90
3644;DHT22;1838;50.742;7.158;2023-02-19T05:27:15;11.10;99.90
3644;DHT22;1838;50.742;7.158;2023-02-19T05:29:41;11.00;99.90
3644;DHT22;1838;50.742;7.158;2023-02-19T05:32:07;11.00;99.90
3644;DHT22;1838;50.742;7.158;2023-02-19T05:34:32;11.00;99.90
3644;DHT22;1838;50.742;7.158;2023-02-19T05:36:58;11.00;99.90
3644;DHT22;1838;50.742;7.158;2023-02-19T05:39:23;11.00;99.90
3644;DHT22;1838;50.742;7.158;2023-02-19T05:41:49;11.00;99.90
3644;DHT22;1838;50.742;7.158;2023-02-19T05:44:14;11.00;99.90
3644;DHT22;1838;50.742;7.158;2023-02-19T05:46:39;11.00;99.90
3644;DHT22;1838;50.742;7.158;2023-02-19T05:49:05;11.00;99.90
3644;DHT22;1838;50.742;7.158;2023-02-19T05:51:30;10.90;99.90
3644;DHT22;1838;50.742;7.158;2023-02-19T05:53:57;10.90;99.90
3644;DHT22;1838;50.742;7.158;2023-02-19T05:56:30;10.90;99.90
3644;DHT22;1838;50.742;7.158;2023-02-19T05:58:57;10.90;99.90
3644;DHT22;1838;50.742;7.158;2023-02-19T06:01:25;10.90;99.90
3644;DHT22;1838;50.742;7.158;2023-02-19T06:03:51;10.90;99.90
3644;DHT22;1838;50.742;7.158;2023-02-19T06:06:20;10.90;99.90
3644;DHT22;1838;50.742;7.158;2023-02-19T06:08:47;10.90;99.90
3644;DHT22;1838;50.742;7.158;2023-02-19T06:11:12;10.90;99.90
3644;DHT22;1838;50.742;7.158;2023-02-19T06:13:38;10.90;99.90
3644;DHT22;1838;50.742;7.158;2023-02-19T06:16:05;10.90;99.90
3644;DHT22;1838;50.742;7.158;2023-02-19T06:18:31;10.80;99.90
3644;DHT22;1838;50.742;7.158;2023-02-19T06:21:04;10.80;99.90
3644;DHT22;1838;50.742;7.158;2023-02-19T06:23:30;10.80;99.90
3644;DHT22;1838;50.742;7.158;2023-02-19T06:26:10;10.80;99.90
3644;DHT22;1838;50.742;7.158;2023-02-19T06:28:37;10.80;99.90
3644;DHT22;1838;50.742;7.158;2023-02-19T06:31:04;10.80;99.90
3644;DHT22;1838;50.742;7.158;2023-02-19T06:33:30;10.80;99.90
3644;DHT22;1838;50.742;7.158;2023-02-19T06:36:01;10.80;99.90
3644;DHT22;1838;50.742;7.158;2023-02-19T06:38:28;10.80;99.90
3644;DHT22;1838;50.742;7.158;2023-02-19T06:40:53;10.70;99.90
3644;DHT22;1838;50.742;7.158;2023-02-19T06:43:19;10.80;99.90
3644;DHT22;1838;50.742;7.158;2023-02-19T06:45:45;10.70;99.90
3644;DHT22;1838;50.742;7.158;2023-02-19T06:48:11;10.80;99.90
3644;DHT22;1838;50.742;7.158;2023-02-19T06:50:36;10.80;99.90
3644;DHT22;1838;50.742;7.158;2023-02-19T06:53:02;10.70;99.90
3644;DHT22;1838;50.742;7.158;2023-02-19T06:55:27;10.70;99.90
3644;DHT22;1838;50.742;7.158;2023-02-19T06:57:53;10.70;99.90
3644;DHT22;1838;50.742;7.158;2023-02-19T07:00:18;10.70;99.90
3644;DHT22;1838;50.742;7.158;2023-02-19T07:02:44;10.70;99.90
3644;DHT22;1838;50.742;7.158;2023-02-19T07:05:09;10.70;99.90
3644;DHT22;1838;50.742;7.158;2023-02-19T07:07:35;10.70;99.90
3644;DHT22;1838;50.742;7.158;2023-02-19T07:10:01;10.70;99.90
3644;DHT22;1838;50.742;7.158;2023-02-19T07:12:26;10.80;99.90
3644;DHT22;1838;50.742;7.158;2023-02-19T07:14:52;10.80;99.90
3644;DHT22;1838;50.742;7.158;2023-02-19T07:17:17;10.80;99.90
3644;DHT22;1838;50.742;7.158;2023-02-19T07:19:43;10.70;99.90
3644;DHT22;1838;50.742;7.158;2023-02-19T07:22:08;10.80;99.90
3644;DHT22;1838;50.742;7.158;2023-02-19T07:24:34;10.80;99.90
3644;DHT22;1838;50.742;7.158;2023-02-19T07:26:59;10.80;99.90
3644;DHT22;1838;50.742;7.158;2023-02-19T07:29:25;10.90;99.90
3644;DHT22;1838;50.742;7.158;2023-02-19T07:31:50;10.80;99.90
3644;DHT22;1838;50.742;7.158;2023-02-19T07:34:16;10.80;99.90
3644;DHT22;1838;50.742;7.158;2023-02-19T07:36:42;10.80;99.90
3644;DHT22;1838;50.742;7.158;2023-02-19T07:39:11;10.80;99.90
3644;DHT22;1838;50.742;7.158;2023-02-19T07:41:37;10.80;99.90
3644;DHT22;1838;50.742;7.158;2023-02-19T07:44:03;10.80;99.90
3644;DHT22;1838;50.742;7.158;2023-02-19T07:46:28;10.80;99.90
3644;DHT22;1838;50.742;7.158;2023-02-19T07:48:54;10.80;99.90
3644;DHT22;1838;50.742;7.158;2023-02-19T07:51:20;10.80;99.90
3644;DHT22;1838;50.742;7.158;2023-02-19T07:53:47;10.80;99.90
3644;DHT22;1838;50.742;7.158;2023-02-19T07:56:15;10.80;99.90
3644;DHT22;1838;50.742;7.158;2023-02-19T07:58:41;10.80;99.90
3644;DHT22;1838;50.742;7.158;2023-02-19T08:01:14;10.80;99.90
3644;DHT22;1838;50.742;7.158;2023-02-19T08:03:41;10.80;99.90
3644;DHT22;1838;50.742;7.158;2023-02-19T08:06:07;10.80;99.90
3644;DHT22;1838;50.742;7.158;2023-02-19T08:08:35;10.80;99.90
3644;DHT22;1838;50.742;7.158;2023-02-19T08:11:02;10.80;99.90
3644;DHT22;1838;50.742;7.158;2023-02-19T08:13:48;10.80;99.90
3644;DHT22;1838;50.742;7.158;2023-02-19T08:16:15;10.80;99.90
3644;DHT22;1838;50.742;7.158;2023-02-19T08:18:42;10.80;99.90
3644;DHT22;1838;50.742;7.158;2023-02-19T08:21:08;10.80;99.90
3644;DHT22;1838;50.742;7.158;2023-02-19T08:23:34;10.80;99.90
3644;DHT22;1838;50.742;7.158;2023-02-19T08:26:00;10.70;99.90
3644;DHT22;1838;50.742;7.158;2023-02-19T08:28:27;10.70;99.90
3644;DHT22;1838;50.742;7.158;2023-02-19T08:31:01;10.70;99.90
3644;DHT22;1838;50.742;7.158;2023-02-19T08:33:27;10.70;99.90
3644;DHT22;1838;50.742;7.158;2023-02-19T08:35:53;10.70;99.90
3644;DHT22;1838;50.742;7.158;2023-02-19T08:38:18;10.70;99.90
3644;DHT22;1838;50.742;7.158;2023-02-19T08:40:44;10.70;99.90
3644;DHT22;1838;50.742;7.158;2023-02-19T08:43:12;10.70;99.90
3644;DHT22;1838;50.742;7.158;2023-02-19T08:45:40;10.70;99.90
3644;DHT22;1838;50.742;7.158;2023-02-19T08:48:06;10.80;99.90
3644;DHT22;1838;50.742;7.158;2023-02-19T08:50:32;10.80;99.90
3644;DHT22;1838;50.742;7.158;2023-02-19T08:52:59;10.90;99.90
3644;DHT22;1838;50.742;7.158;2023-02-19T08:55:25;10.90;99.90
3644;DHT22;1838;50.742;7.158;2023-02-19T08:57:51;10.90;99.90
3644;DHT22;1838;50.742;7.158;2023-02-19T09:00:16;10.90;99.90
3644;DHT22;1838;50.742;7.158;2023-02-19T09:02:42;11.00;99.90
3644;DHT22;1838;50.742;7.158;2023-02-19T09:05:09;11.00;99.90
3644;DHT22;1838;50.742;7.158;2023-02-19T09:07:35;11.10;99.90
3644;DHT22;1838;50.742;7.158;2023-02-19T09:10:00;11.20;99.90
3644;DHT22;1838;50.742;7.158;2023-02-19T09:12:26;11.10;99.90
3644;DHT22;1838;50.742;7.158;2023-02-19T09:14:51;11.20;99.90
3644;DHT22;1838;50.742;7.158;2023-02-19T09:17:17;11.30;99.90
3644;DHT22;1838;50.742;7.158;2023-02-19T09:19:42;11.30;99.90
3644;DHT22;1838;50.742;7.158;2023-02-19T09:22:08;11.30;99.90
3644;DHT22;1838;50.742;7.158;2023-02-19T09:24:35;11.40;99.90
3644;DHT22;1838;50.742;7.158;2023-02-19T09:27:00;11.40;99.90
3644;DHT22;1838;50.742;7.158;2023-02-19T09:29:27;11.40;99.90
3644;DHT22;1838;50.742;7.158;2023-02-19T09:31:57;11.40;99.90
3644;DHT22;1838;50.742;7.158;2023-02-19T09:34:24;11.50;99.90
3644;DHT22;1838;50.742;7.158;2023-02-19T09:36:50;11.50;99.90
3644;DHT22;1838;50.742;7.158;2023-02-19T09:39:15;11.50;99.90
3644;DHT22;1838;50.742;7.158;2023-02-19T09:41:57;11.50;99.90
3644;DHT22;1838;50.742;7.158;2023-02-19T09:44:30;11.60;99.90
3644;DHT22;1838;50.742;7.158;2023-02-19T09:46:59;11.70;99.90
3644;DHT22;1838;50.742;7.158;2023-02-19T09:49:32;11.60;99.90
3644;DHT22;1838;50.742;7.158;2023-02-19T09:52:14;11.60;99.90
3644;DHT22;1838;50.742;7.158;2023-02-19T09:54:42;11.60;99.90
3644;DHT22;1838;50.742;7.158;2023-02-19T09:57:13;11.70;99.90
3644;DHT22;1838;50.742;7.158;2023-02-19T09:59:45;11.80;99.90
3644;DHT22;1838;50.742;7.158;2023-02-19T10:02:17;11.80;99.90
3644;DHT22;1838;50.742;7.158;2023-02-19T10:04:45;11.80;99.90
3644;DHT22;1838;50.742;7.158;2023-02-19T10:07:16;11.80;99.90
3644;DHT22;1838;50.742;7.158;2023-02-19T10:09:56;11.70;99.90
3644;DHT22;1838;50.742;7.158;2023-02-19T10:12:29;11.70;99.90
3644;DHT22;1838;50.742;7.158;2023-02-19T10:15:00;11.70;99.90
3644;DHT22;1838;50.742;7.158;2023-02-19T10:17:31;11.60;99.90
3644;DHT22;1838;50.742;7.158;2023-02-19T10:19:59;11.70;99.90
3644;DHT22;1838;50.742;7.158;2023-02-19T10:22:25;11.70;99.90
3644;DHT22;1838;50.742;7.158;2023-02-19T10:24:53;11.70;99.90
3644;DHT22;1838;50.742;7.158;2023-02-19T10:27:19;11.70;99.90
3644;DHT22;1838;50.742;7.158;2023-02-19T10:29:46;11.70;99.90
3644;DHT22;1838;50.742;7.158;2023-02-19T10:32:17;11.70;99.90
3644;DHT22;1838;50.742;7.158;2023-02-19T10:34:45;11.60;99.90
3644;DHT22;1838;50.742;7.158;2023-02-19T10:37:15;11.60;99.90
3644;DHT22;1838;50.742;7.158;2023-02-19T10:39:46;11.60;99.90
3644;DHT22;1838;50.742;7.158;2023-02-19T10:42:15;11.60;99.90
3644;DHT22;1838;50.742;7.158;2023-02-19T10:44:44;11.60;99.90
3644;DHT22;1838;50.742;7.158;2023-02-19T10:47:15;11.60;99.90
3644;DHT22;1838;50.742;7.158;2023-02-19T10:49:42;11.50;99.90
3644;DHT22;1838;50.742;7.158;2023-02-19T10:54:45;11.30;99.90
3644;DHT22;1838;50.742;7.158;2023-02-19T11:00:18;11.30;99.90
3644;DHT22;1838;50.742;7.158;2023-02-19T11:02:44;11.20;99.90
3644;DHT22;1838;50.742;7.158;2023-02-19T11:07:37;11.10;99.90
3644;DHT22;1838;50.742;7.158;2023-02-19T11:10:19;11.20;99.90
3644;DHT22;1838;50.742;7.158;2023-02-19T11:12:49;11.20;99.90
3644;DHT22;1838;50.742;7.158;2023-02-19T11:15:31;11.20;99.90
3644;DHT22;1838;50.742;7.158;2023-02-19T11:18:22;11.30;99.90
3644;DHT22;1838;50.742;7.158;2023-02-19T11:20:52;11.40;99.90
3644;DHT22;1838;50.742;7.158;2023-02-19T11:23:30;11.40;99.90
3644;DHT22;1838;50.742;7.158;2023-02-19T11:25:58;11.40;99.90
3644;DHT22;1838;50.742;7.158;2023-02-19T11:28:37;11.50;99.90
3644;DHT22;1838;50.742;7.158;2023-02-19T11:38:47;11.80;99.90
3644;DHT22;1838;50.742;7.158;2023-02-19T11:50:26;12.10;99.90
3644;DHT22;1838;50.742;7.158;2023-02-19T11:53:16;12.20;99.90
3644;DHT22;1838;50.742;7.158;2023-02-19T11:58:54;12.40;99.90
3644;DHT22;1838;50.742;7.158;2023-02-19T12:07:21;12.60;99.90
3644;DHT22;1838;50.742;7.158;2023-02-19T12:18:34;12.60;99.90
3644;DHT22;1838;50.742;7.158;2023-02-19T12:24:13;12.60;99.90
3644;DHT22;1838;50.742;7.158;2023-02-19T12:34:38;12.50;99.90
3644;DHT22;1838;50.742;7.158;2023-02-19T12:48:29;12.60;99.90
3644;DHT22;1838;50.742;7.158;2023-02-19T12:51:06;12.40;99.90
3644;DHT22;1838;50.742;7.158;2023-02-19T12:56:35;12.40;99.90
3644;DHT22;1838;50.742;7.158;2023-02-19T12:59:13;12.50;99.90
3644;DHT22;1838;50.742;7.158;2023-02-19T13:01:57;12.60;99.90
3644;DHT22;1838;50.742;7.158;2023-02-19T13:04:56;12.60;99.90
3644;DHT22;1838;50.742;7.158;2023-02-19T13:07:37;12.60;99.90
3644;DHT22;1838;50.742;7.158;2023-02-19T13:12:53;12.70;99.90
3644;DHT22;1838;50.742;7.158;2023-02-19T13:15:33;12.60;99.90
3644;DHT22;1838;50.742;7.158;2023-02-19T13:18:02;12.60;99.90
3644;DHT22;1838;50.742;7.158;2023-02-19T13:20:32;12.60;99.90
3644;DHT22;1838;50.742;7.158;2023-02-19T13:23:27;12.60;99.90
3644;DHT22;1838;50.742;7.158;2023-02-19T13:38:10;12.70;99.90
3644;DHT22;1838;50.742;7.158;2023-02-19T13:40:39;12.80;99.90
3644;DHT22;1838;50.742;7.158;2023-02-19T13:43:28;12.80;99.90
3644;DHT22;1838;50.742;7.158;2023-02-19T13:46:06;12.80;99.90
3644;DHT22;1838;50.742;7.158;2023-02-19T13:48:35;12.80;99.90
3644;DHT22;1838;50.742;7.158;2023-02-19T14:04:46;12.60;99.90
3644;DHT22;1838;50.742;7.158;2023-02-19T14:14:51;12.00;99.90
3644;DHT22;1838;50.742;7.158;2023-02-19T14:17:39;12.00;99.90
3644;DHT22;1838;50.742;7.158;2023-02-19T14:22:57;11.80;99.90
3644;DHT22;1838;50.742;7.158;2023-02-19T14:25:44;11.80;99.90
3644;DHT22;1838;50.742;7.158;2023-02-19T14:28:22;11.70;99.90
3644;DHT22;1838;50.742;7.158;2023-02-19T14:31:14;11.80;99.90
3644;DHT22;1838;50.742;7.158;2023-02-19T14:33:49;11.70;99.90
3644;DHT22;1838;50.742;7.158;2023-02-19T14:39:10;11.60;99.90
3644;DHT22;1838;50.742;7.158;2023-02-19T14:41:39;11.60;99.90
3644;DHT22;1838;50.742;7.158;2023-02-19T14:44:11;11.60;99.90
3644;DHT22;1838;50.742;7.158;2023-02-19T14:46:45;11.60;99.90
3644;DHT22;1838;50.742;7.158;2023-02-19T14:51:45;11.70;99.90
3644;DHT22;1838;50.742;7.158;2023-02-19T14:54:17;11.80;99.90
3644;DHT22;1838;50.742;7.158;2023-02-19T14:56:47;11.70;99.90
3644;DHT22;1838;50.742;7.158;2023-02-19T15:01:44;11.80;99.90
3644;DHT22;1838;50.742;7.158;2023-02-19T15:04:25;11.80;99.90
3644;DHT22;1838;50.742;7.158;2023-02-19T15:06:52;11.70;99.90
3644;DHT22;1838;50.742;7.158;2023-02-19T15:09:20;11.70;99.90
3644;DHT22;1838;50.742;7.158;2023-02-19T15:11:49;11.60;99.90
3644;DHT22;1838;50.742;7.158;2023-02-19T15:14:20;11.60;99.90
3644;DHT22;1838;50.742;7.158;2023-02-19T15:16:49;11.70;99.90
3644;DHT22;1838;50.742;7.158;2023-02-19T15:19:18;11.70;99.90
3644;DHT22;1838;50.742;7.158;2023-02-19T15:21:45;11.70;99.90
3644;DHT22;1838;50.742;7.158;2023-02-19T15:24:14;11.70;99.90
3644;DHT22;1838;50.742;7.158;2023-02-19T15:26:42;11.70;99.90
3644;DHT22;1838;50.742;7.158;2023-02-19T15:29:14;11.70;99.90
3644;DHT22;1838;50.742;7.158;2023-02-19T15:31:49;11.80;99.90
3644;DHT22;1838;50.742;7.158;2023-02-19T15:34:33;11.80;99.90
3644;DHT22;1838;50.742;7.158;2023-02-19T15:37:04;11.90;99.90
3644;DHT22;1838;50.742;7.158;2023-02-19T15:39:38;11.90;99.90
3644;DHT22;1838;50.742;7.158;2023-02-19T15:42:06;11.90;99.90
3644;DHT22;1838;50.742;7.158;2023-02-19T15:44:55;12.00;99.90
3644;DHT22;1838;50.742;7.158;2023-02-19T15:47:35;12.00;99.90
3644;DHT22;1838;50.742;7.158;2023-02-19T15:50:17;12.10;99.90
3644;DHT22;1838;50.742;7.158;2023-02-19T15:53:07;12.10;99.90
3644;DHT22;1838;50.742;7.158;2023-02-19T15:55:39;12.10;99.90
3644;DHT22;1838;50.742;7.158;2023-02-19T15:58:32;12.10;99.90
3644;DHT22;1838;50.742;7.158;2023-02-19T16:01:26;12.00;99.90
3644;DHT22;1838;50.742;7.158;2023-02-19T16:03:52;12.10;99.90
3644;DHT22;1838;50.742;7.158;2023-02-19T16:06:19;12.10;99.90
3644;DHT22;1838;50.742;7.158;2023-02-19T16:08:58;12.10;99.90
3644;DHT22;1838;50.742;7.158;2023-02-19T16:11:33;12.10;99.90
3644;DHT22;1838;50.742;7.158;2023-02-19T16:14:16;12.00;99.90
3644;DHT22;1838;50.742;7.158;2023-02-19T16:16:43;11.90;99.90
3644;DHT22;1838;50.742;7.158;2023-02-19T16:19:10;11.90;99.90
3644;DHT22;1838;50.742;7.158;2023-02-19T16:21:36;11.80;99.90
3644;DHT22;1838;50.742;7.158;2023-02-19T16:24:29;11.80;99.90
3644;DHT22;1838;50.742;7.158;2023-02-19T16:26:56;11.80;99.90
3644;DHT22;1838;50.742;7.158;2023-02-19T16:29:30;11.70;99.90
3644;DHT22;1838;50.742;7.158;2023-02-19T16:32:02;11.70;99.90
3644;DHT22;1838;50.742;7.158;2023-02-19T16:34:49;11.60;99.90
3644;DHT22;1838;50.742;7.158;2023-02-19T16:37:57;11.50;99.90
3644;DHT22;1838;50.742;7.158;2023-02-19T16:45:14;11.40;99.90
3644;DHT22;1838;50.742;7.158;2023-02-19T16:47:40;11.30;99.90
3644;DHT22;1838;50.742;7.158;2023-02-19T16:52:58;11.30;99.90
3644;DHT22;1838;50.742;7.158;2023-02-19T16:55:25;11.30;99.90
3644;DHT22;1838;50.742;7.158;2023-02-19T16:57:51;11.20;99.90
3644;DHT22;1838;50.742;7.158;2023-02-19T17:00:22;11.20;99.90
3644;DHT22;1838;50.742;7.158;2023-02-19T17:02:50;11.20;99.90
3644;DHT22;1838;50.742;7.158;2023-02-19T17:05:16;11.10;99.90
3644;DHT22;1838;50.742;7.158;2023-02-19T17:07:42;11.20;99.90
3644;DHT22;1838;50.742;7.158;2023-02-19T17:10:10;11.20;99.90
3644;DHT22;1838;50.742;7.158;2023-02-19T17:12:37;11.10;99.90
3644;DHT22;1838;50.742;7.158;2023-02-19T17:15:03;11.00;99.90
3644;DHT22;1838;50.742;7.158;2023-02-19T17:17:28;11.00;99.90
3644;DHT22;1838;50.742;7.158;2023-02-19T17:19:54;10.90;99.90
3644;DHT22;1838;50.742;7.158;2023-02-19T17:22:20;10.90;99.90
3644;DHT22;1838;50.742;7.158;2023-02-19T17:25:02;10.80;99.90
3644;DHT22;1838;50.742;7.158;2023-02-19T17:27:28;10.80;99.90
3644;DHT22;1838;50.742;7.158;2023-02-19T17:29:53;10.80;99.90
3644;DHT22;1838;50.742;7.158;2023-02-19T17:32:19;10.70;99.90
3644;DHT22;1838;50.742;7.158;2023-02-19T17:34:45;10.80;99.90
3644;DHT22;1838;50.742;7.158;2023-02-19T17:37:13;10.80;99.90
3644;DHT22;1838;50.742;7.158;2023-02-19T17:39:39;10.70;99.90
3644;DHT22;1838;50.742;7.158;2023-02-19T17:42:04;10.80;99.90
3644;DHT22;1838;50.742;7.158;2023-02-19T17:44:30;10.80;99.90
3644;DHT22;1838;50.742;7.158;2023-02-19T17:46:55;10.70;99.90
3644;DHT22;1838;50.742;7.158;2023-02-19T17:49:21;10.70;99.90
3644;DHT22;1838;50.742;7.158;2023-02-19T17:51:47;10.70;99.90
3644;DHT22;1838;50.742;7.158;2023-02-19T17:54:12;10.70;99.90
3644;DHT22;1838;50.742;7.158;2023-02-19T17:56:38;10.70;99.90
3644;DHT22;1838;50.742;7.158;2023-02-19T17:59:08;10.70;99.90
3644;DHT22;1838;50.742;7.158;2023-02-19T18:01:33;10.70;99.90
3644;DHT22;1838;50.742;7.158;2023-02-19T18:03:59;10.60;99.90
3644;DHT22;1838;50.742;7.158;2023-02-19T18:06:24;10.60;99.90
3644;DHT22;1838;50.742;7.158;2023-02-19T18:08:51;10.50;99.90
3644;DHT22;1838;50.742;7.158;2023-02-19T18:11:17;10.50;99.90
3644;DHT22;1838;50.742;7.158;2023-02-19T18:13:43;10.50;99.90
3644;DHT22;1838;50.742;7.158;2023-02-19T18:16:09;10.60;99.90
3644;DHT22;1838;50.742;7.158;2023-02-19T18:18:35;10.50;99.90
3644;DHT22;1838;50.742;7.158;2023-02-19T18:21:01;10.50;99.90
3644;DHT22;1838;50.742;7.158;2023-02-19T18:23:27;10.60;99.90
3644;DHT22;1838;50.742;7.158;2023-02-19T18:25:52;10.50;99.90
3644;DHT22;1838;50.742;7.158;2023-02-19T18:28:18;10.60;99.90
3644;DHT22;1838;50.742;7.158;2023-02-19T18:30:43;10.50;99.90
3644;DHT22;1838;50.742;7.158;2023-02-19T18:33:09;10.50;99.90
3644;DHT22;1838;50.742;7.158;2023-02-19T18:35:37;10.50;99.90
3644;DHT22;1838;50.742;7.158;2023-02-19T18:38:03;10.40;99.90
3644;DHT22;1838;50.742;7.158;2023-02-19T18:40:28;10.40;99.90
3644;DHT22;1838;50.742;7.158;2023-02-19T18:42:54;10.40;99.90
3644;DHT22;1838;50.742;7.158;2023-02-19T18:45:20;10.40;99.90